sensor_id;sensor_type;location;lat;lon;timestamp;temperature;humidity
40434;DHT22;26146;51.114;5.654;2023-03-13T00:02:46;12.40;99.90
40434;DHT22;26146;51.114;5.654;2023-03-13T00:06:47;12.40;99.90
40434;DHT22;26146;51.114;5.654;2023-03-13T00:10:48;12.40;99.90
40434;DHT22;26146;51.114;5.654;2023-03-13T00:14:48;12.40;99.90
40434;DHT22;26146;51.114;5.654;2023-03-13T00:18:51;12.40;99.90
40434;DHT22;26146;51.114;5.654;2023-03-13T00:22:54;12.40;99.90
40434;DHT22;26146;51.114;5.654;2023-03-13T00:26:55;12.50;99.90
40434;DHT22;26146;51.114;5.654;2023-03-13T00:31:12;12.40;99.90
40434;DHT22;26146;51.114;5.654;2023-03-13T00:35:14;12.30;99.90
40434;DHT22;26146;51.114;5.654;2023-03-13T00:39:15;12.40;99.90
40434;DHT22;26146;51.114;5.654;2023-03-13T00:43:16;12.40;99.90
40434;DHT22;26146;51.114;5.654;2023-03-13T00:47:17;12.30;99.90
40434;DHT22;26146;51.114;5.654;2023-03-13T00:51:19;12.20;99.90
40434;DHT22;26146;51.114;5.654;2023-03-13T00:55:20;12.00;99.90
40434;DHT22;26146;51.114;5.654;2023-03-13T00:59:21;11.90;99.90
40434;DHT22;26146;51.114;5.654;2023-03-13T01:03:25;11.90;99.90
40434;DHT22;26146;51.114;5.654;2023-03-13T01:07:28;12.10;99.90
40434;DHT22;26146;51.114;5.654;2023-03-13T01:11:32;12.10;99.90
40434;DHT22;26146;51.114;5.654;2023-03-13T01:15:34;12.00;99.90
40434;DHT22;26146;51.114;5.654;2023-03-13T01:19:35;11.90;99.90
40434;DHT22;26146;51.114;5.654;2023-03-13T01:23:39;12.00;99.90
40434;DHT22;26146;51.114;5.654;2023-03-13T01:27:40;12.00;99.90
40434;DHT22;26146;51.114;5.654;2023-03-13T01:31:41;11.90;99.90
40434;DHT22;26146;51.114;5.654;2023-03-13T01:35:42;11.90;99.90
40434;DHT22;26146;51.114;5.654;2023-03-13T01:39:44;11.90;99.90
40434;DHT22;26146;51.114;5.654;2023-03-13T01:43:45;11.90;99.90
40434;DHT22;26146;51.114;5.654;2023-03-13T01:47:46;12.00;99.90
40434;DHT22;26146;51.114;5.654;2023-03-13T01:51:51;12.00;99.90
40434;DHT22;26146;51.114;5.654;2023-03-13T01:55:54;12.00;99.90
40434;DHT22;26146;51.114;5.654;2023-03-13T02:00:05;12.00;99.90
40434;DHT22;26146;51.114;5.654;2023-03-13T02:04:08;12.00;99.90
40434;DHT22;26146;51.114;5.654;2023-03-13T02:08:11;12.10;99.90
40434;DHT22;26146;51.114;5.654;2023-03-13T02:12:17;12.10;99.90
40434;DHT22;26146;51.114;5.654;2023-03-13T02:16:20;12.00;99.90
40434;DHT22;26146;51.114;5.654;2023-03-13T02:20:21;12.10;99.90
40434;DHT22;26146;51.114;5.654;2023-03-13T02:24:31;12.10;99.90
40434;DHT22;26146;51.114;5.654;2023-03-13T02:28:34;12.30;99.90
40434;DHT22;26146;51.114;5.654;2023-03-13T02:32:39;12.40;99.90
40434;DHT22;26146;51.114;5.654;2023-03-13T02:36:41;12.40;99.90
40434;DHT22;26146;51.114;5.654;2023-03-13T02:40:46;12.50;99.90
40434;DHT22;26146;51.114;5.654;2023-03-13T02:44:48;12.60;99.90
40434;DHT22;26146;51.114;5.654;2023-03-13T02:48:53;12.60;99.90
40434;DHT22;26146;51.114;5.654;2023-03-13T02:53:02;12.50;99.90
40434;DHT22;26146;51.114;5.654;2023-03-13T02:57:05;12.40;99.90
40434;DHT22;26146;51.114;5.654;2023-03-13T03:01:06;12.40;99.90
40434;DHT22;26146;51.114;5.654;2023-03-13T03:05:08;12.50;99.90
40434;DHT22;26146;51.114;5.654;2023-03-13T03:09:09;12.60;99.90
40434;DHT22;26146;51.114;5.654;2023-03-13T03:13:12;12.60;99.90
40434;DHT22;26146;51.114;5.654;2023-03-13T03:17:15;12.60;99.90
40434;DHT22;26146;51.114;5.654;2023-03-13T03:21:16;12.70;99.90
40434;DHT22;26146;51.114;5.654;2023-03-13T03:25:20;12.80;99.90
40434;DHT22;26146;51.114;5.654;2023-03-13T03:29:21;12.90;99.90
40434;DHT22;26146;51.114;5.654;2023-03-13T03:33:22;13.00;99.90
40434;DHT22;26146;51.114;5.654;2023-03-13T03:37:24;13.00;99.90
40434;DHT22;26146;51.114;5.654;2023-03-13T03:41:24;13.00;99.90
40434;DHT22;26146;51.114;5.654;2023-03-13T03:45:25;13.10;99.90
40434;DHT22;26146;51.114;5.654;2023-03-13T03:49:27;13.10;99.90
40434;DHT22;26146;51.114;5.654;2023-03-13T03:53:28;13.20;99.90
40434;DHT22;26146;51.114;5.654;2023-03-13T03:57:29;13.20;99.90
40434;DHT22;26146;51.114;5.654;2023-03-13T04:01:30;13.30;99.90
40434;DHT22;26146;51.114;5.654;2023-03-13T04:05:30;13.20;99.90
40434;DHT22;26146;51.114;5.654;2023-03-13T04:09:31;13.30;99.90
40434;DHT22;26146;51.114;5.654;2023-03-13T04:13:32;13.30;99.90
40434;DHT22;26146;51.114;5.654;2023-03-13T04:17:33;13.30;99.90
40434;DHT22;26146;51.114;5.654;2023-03-13T04:21:37;13.40;99.90
40434;DHT22;26146;51.114;5.654;2023-03-13T04:25:41;13.40;99.90
40434;DHT22;26146;51.114;5.654;2023-03-13T04:29:42;13.30;99.90
40434;DHT22;26146;51.114;5.654;2023-03-13T04:33:43;13.30;99.90
40434;DHT22;26146;51.114;5.654;2023-03-13T04:37:44;13.30;99.90
40434;DHT22;26146;51.114;5.654;2023-03-13T04:41:45;13.30;99.90
40434;DHT22;26146;51.114;5.654;2023-03-13T04:45:46;13.40;99.90
40434;DHT22;26146;51.114;5.654;2023-03-13T04:49:49;13.50;99.90
40434;DHT22;26146;51.114;5.654;2023-03-13T04:53:50;13.50;99.90
40434;DHT22;26146;51.114;5.654;2023-03-13T04:57:51;13.50;99.90
40434;DHT22;26146;51.114;5.654;2023-03-13T05:01:52;13.50;99.90
40434;DHT22;26146;51.114;5.654;2023-03-13T05:05:53;13.60;99.90
40434;DHT22;26146;51.114;5.654;2023-03-13T05:09:56;13.70;99.90
40434;DHT22;26146;51.114;5.654;2023-03-13T05:13:57;13.80;99.90
40434;DHT22;26146;51.114;5.654;2023-03-13T05:17:58;13.80;99.90
40434;DHT22;26146;51.114;5.654;2023-03-13T05:21:59;13.90;99.90
40434;DHT22;26146;51.114;5.654;2023-03-13T05:26:00;13.90;99.90
40434;DHT22;26146;51.114;5.654;2023-03-13T05:30:03;13.90;99.90
40434;DHT22;26146;51.114;5.654;2023-03-13T05:34:04;14.00;99.90
40434;DHT22;26146;51.114;5.654;2023-03-13T05:38:05;14.00;99.90
40434;DHT22;26146;51.114;5.654;2023-03-13T05:42:06;14.00;99.90
40434;DHT22;26146;51.114;5.654;2023-03-13T05:46:07;14.10;99.90
40434;DHT22;26146;51.114;5.654;2023-03-13T05:50:11;14.10;99.90
40434;DHT22;26146;51.114;5.654;2023-03-13T05:54:12;14.20;99.90
40434;DHT22;26146;51.114;5.654;2023-03-13T05:58:13;14.20;99.90
40434;DHT22;26146;51.114;5.654;2023-03-13T06:02:14;14.20;99.90
40434;DHT22;26146;51.114;5.654;2023-03-13T06:06:15;14.30;99.90
40434;DHT22;26146;51.114;5.654;2023-03-13T06:10:16;14.20;99.90
40434;DHT22;26146;51.114;5.654;2023-03-13T06:14:20;14.20;99.90
40434;DHT22;26146;51.114;5.654;2023-03-13T06:18:21;14.20;99.90
40434;DHT22;26146;51.114;5.654;2023-03-13T06:22:22;14.20;99.90
40434;DHT22;26146;51.114;5.654;2023-03-13T06:26:23;14.20;99.90
40434;DHT22;26146;51.114;5.654;2023-03-13T06:30:25;14.30;99.90
40434;DHT22;26146;51.114;5.654;2023-03-13T06:34:26;14.30;99.90
40434;DHT22;26146;51.114;5.654;2023-03-13T06:38:27;14.40;99.90
40434;DHT22;26146;51.114;5.654;2023-03-13T06:42:31;14.50;99.90
40434;DHT22;26146;51.114;5.654;2023-03-13T06:46:32;14.60;99.90
40434;DHT22;26146;51.114;5.654;2023-03-13T06:50:37;14.50;99.90
40434;DHT22;26146;51.114;5.654;2023-03-13T06:54:38;14.50;99.90
40434;DHT22;26146;51.114;5.654;2023-03-13T06:58:41;14.50;99.90
40434;DHT22;26146;51.114;5.654;2023-03-13T07:02:42;14.70;99.90
40434;DHT22;26146;51.114;5.654;2023-03-13T07:06:43;14.80;99.90
40434;DHT22;26146;51.114;5.654;2023-03-13T07:10:44;14.90;99.90
40434;DHT22;26146;51.114;5.654;2023-03-13T07:14:48;14.90;99.90
40434;DHT22;26146;51.114;5.654;2023-03-13T07:18:49;15.00;99.90
40434;DHT22;26146;51.114;5.654;2023-03-13T07:22:52;15.00;99.90
40434;DHT22;26146;51.114;5.654;2023-03-13T07:26:56;14.90;99.90
40434;DHT22;26146;51.114;5.654;2023-03-13T07:31:07;14.70;99.90
40434;DHT22;26146;51.114;5.654;2023-03-13T07:35:10;14.80;99.90
40434;DHT22;26146;51.114;5.654;2023-03-13T07:39:14;14.90;99.90
40434;DHT22;26146;51.114;5.654;2023-03-13T07:43:16;15.20;99.90
40434;DHT22;26146;51.114;5.654;2023-03-13T07:47:17;15.20;99.90
40434;DHT22;26146;51.114;5.654;2023-03-13T07:51:21;15.10;99.90
40434;DHT22;26146;51.114;5.654;2023-03-13T07:55:25;15.20;99.90
40434;DHT22;26146;51.114;5.654;2023-03-13T07:59:26;15.20;99.90
40434;DHT22;26146;51.114;5.654;2023-03-13T08:03:27;15.20;99.90
40434;DHT22;26146;51.114;5.654;2023-03-13T08:07:29;15.40;99.90
40434;DHT22;26146;51.114;5.654;2023-03-13T08:11:33;15.30;99.90
40434;DHT22;26146;51.114;5.654;2023-03-13T08:15:34;15.20;99.90
40434;DHT22;26146;51.114;5.654;2023-03-13T08:19:35;15.10;99.90
40434;DHT22;26146;51.114;5.654;2023-03-13T08:23:37;15.20;99.90
40434;DHT22;26146;51.114;5.654;2023-03-13T08:27:38;15.50;99.90
40434;DHT22;26146;51.114;5.654;2023-03-13T08:31:46;15.80;99.90
40434;DHT22;26146;51.114;5.654;2023-03-13T08:35:52;16.10;99.90
40434;DHT22;26146;51.114;5.654;2023-03-13T08:39:53;16.10;99.90
40434;DHT22;26146;51.114;5.654;2023-03-13T08:43:56;16.10;99.90
40434;DHT22;26146;51.114;5.654;2023-03-13T08:47:57;16.20;99.90
40434;DHT22;26146;51.114;5.654;2023-03-13T08:52:03;16.20;99.90
40434;DHT22;26146;51.114;5.654;2023-03-13T08:56:05;16.20;99.90
40434;DHT22;26146;51.114;5.654;2023-03-13T09:00:07;16.40;99.90
40434;DHT22;26146;51.114;5.654;2023-03-13T09:04:08;16.70;99.90
40434;DHT22;26146;51.114;5.654;2023-03-13T09:08:09;16.80;99.90
40434;DHT22;26146;51.114;5.654;2023-03-13T09:12:10;16.50;99.90
40434;DHT22;26146;51.114;5.654;2023-03-13T09:16:17;16.40;99.90
40434;DHT22;26146;51.114;5.654;2023-03-13T09:20:18;16.40;99.90
40434;DHT22;26146;51.114;5.654;2023-03-13T09:24:19;16.70;99.90
40434;DHT22;26146;51.114;5.654;2023-03-13T09:28:20;17.10;99.90
40434;DHT22;26146;51.114;5.654;2023-03-13T09:32:21;17.00;99.90
40434;DHT22;26146;51.114;5.654;2023-03-13T09:36:23;17.20;99.90
40434;DHT22;26146;51.114;5.654;2023-03-13T09:40:25;17.00;99.90
40434;DHT22;26146;51.114;5.654;2023-03-13T09:44:41;17.10;99.90
40434;DHT22;26146;51.114;5.654;2023-03-13T09:48:54;17.20;99.90
40434;DHT22;26146;51.114;5.654;2023-03-13T09:53:03;17.40;99.90
40434;DHT22;26146;51.114;5.654;2023-03-13T09:57:22;17.30;99.90
40434;DHT22;26146;51.114;5.654;2023-03-13T10:01:27;17.40;99.90
40434;DHT22;26146;51.114;5.654;2023-03-13T10:05:30;17.50;99.90
40434;DHT22;26146;51.114;5.654;2023-03-13T10:09:32;17.70;99.90
40434;DHT22;26146;51.114;5.654;2023-03-13T10:14:05;17.90;99.90
40434;DHT22;26146;51.114;5.654;2023-03-13T10:18:19;17.90;99.90
40434;DHT22;26146;51.114;5.654;2023-03-13T10:22:24;18.00;99.90
40434;DHT22;26146;51.114;5.654;2023-03-13T10:26:27;18.00;99.90
40434;DHT22;26146;51.114;5.654;2023-03-13T10:30:33;17.80;99.90
40434;DHT22;26146;51.114;5.654;2023-03-13T10:34:57;18.00;99.90
40434;DHT22;26146;51.114;5.654;2023-03-13T10:38:58;18.60;99.90
40434;DHT22;26146;51.114;5.654;2023-03-13T10:43:05;18.80;99.90
40434;DHT22;26146;51.114;5.654;2023-03-13T10:47:11;18.60;99.90
40434;DHT22;26146;51.114;5.654;2023-03-13T10:51:21;18.70;99.90
40434;DHT22;26146;51.114;5.654;2023-03-13T10:55:24;18.80;99.90
40434;DHT22;26146;51.114;5.654;2023-03-13T10:59:26;18.60;99.90
40434;DHT22;26146;51.114;5.654;2023-03-13T11:03:30;18.60;99.90
40434;DHT22;26146;51.114;5.654;2023-03-13T11:07:37;18.40;99.90
40434;DHT22;26146;51.114;5.654;2023-03-13T11:11:47;18.40;99.90
40434;DHT22;26146;51.114;5.654;2023-03-13T11:15:53;18.60;99.90
40434;DHT22;26146;51.114;5.654;2023-03-13T11:20:22;18.90;99.90
40434;DHT22;26146;51.114;5.654;2023-03-13T11:24:35;19.10;99.90
40434;DHT22;26146;51.114;5.654;2023-03-13T11:32:55;19.00;99.90
40434;DHT22;26146;51.114;5.654;2023-03-13T11:45:54;19.20;99.90
40434;DHT22;26146;51.114;5.654;2023-03-13T11:50:16;19.40;99.90
40434;DHT22;26146;51.114;5.654;2023-03-13T12:03:10;19.20;99.90
40434;DHT22;26146;51.114;5.654;2023-03-13T12:07:22;19.10;99.90
40434;DHT22;26146;51.114;5.654;2023-03-13T12:15:42;19.30;99.90
40434;DHT22;26146;51.114;5.654;2023-03-13T12:28:40;19.30;99.70
40434;DHT22;26146;51.114;5.654;2023-03-13T12:37:49;19.30;99.50
40434;DHT22;26146;51.114;5.654;2023-03-13T12:46:40;19.20;99.80
40434;DHT22;26146;51.114;5.654;2023-03-13T12:50:58;19.20;99.20
40434;DHT22;26146;51.114;5.654;2023-03-13T13:00:02;19.40;99.20
40434;DHT22;26146;51.114;5.654;2023-03-13T13:04:11;19.40;99.00
40434;DHT22;26146;51.114;5.654;2023-03-13T13:08:24;19.60;99.10
40434;DHT22;26146;51.114;5.654;2023-03-13T13:12:29;19.40;99.30
40434;DHT22;26146;51.114;5.654;2023-03-13T13:16:30;19.20;99.60
40434;DHT22;26146;51.114;5.654;2023-03-13T13:20:37;19.20;99.90
40434;DHT22;26146;51.114;5.654;2023-03-13T13:24:50;19.10;99.90
40434;DHT22;26146;51.114;5.654;2023-03-13T13:28:52;18.80;99.90
40434;DHT22;26146;51.114;5.654;2023-03-13T13:32:55;18.60;99.90
40434;DHT22;26146;51.114;5.654;2023-03-13T13:36:58;18.40;99.90
40434;DHT22;26146;51.114;5.654;2023-03-13T13:41:04;18.60;99.90
40434;DHT22;26146;51.114;5.654;2023-03-13T13:49:51;18.90;99.90
40434;DHT22;26146;51.114;5.654;2023-03-13T13:53:56;19.00;99.90
40434;DHT22;26146;51.114;5.654;2023-03-13T13:58:04;18.80;99.90
40434;DHT22;26146;51.114;5.654;2023-03-13T14:06:21;18.80;99.90
40434;DHT22;26146;51.114;5.654;2023-03-13T14:14:36;18.80;99.60
40434;DHT22;26146;51.114;5.654;2023-03-13T14:18:40;18.80;99.90
40434;DHT22;26146;51.114;5.654;2023-03-13T14:22:47;19.00;98.80
40434;DHT22;26146;51.114;5.654;2023-03-13T14:26:48;19.00;98.60
40434;DHT22;26146;51.114;5.654;2023-03-13T14:30:52;19.00;98.20
40434;DHT22;26146;51.114;5.654;2023-03-13T14:34:53;19.10;97.90
40434;DHT22;26146;51.114;5.654;2023-03-13T14:39:00;18.80;97.60
40434;DHT22;26146;51.114;5.654;2023-03-13T14:43:02;18.50;98.30
40434;DHT22;26146;51.114;5.654;2023-03-13T14:47:27;18.40;98.80
40434;DHT22;26146;51.114;5.654;2023-03-13T14:51:31;18.40;99.60
40434;DHT22;26146;51.114;5.654;2023-03-13T14:55:34;18.70;99.50
40434;DHT22;26146;51.114;5.654;2023-03-13T14:59:37;18.80;98.50
40434;DHT22;26146;51.114;5.654;2023-03-13T15:03:43;18.60;98.90
40434;DHT22;26146;51.114;5.654;2023-03-13T15:07:52;18.70;98.70
40434;DHT22;26146;51.114;5.654;2023-03-13T15:11:58;18.50;99.00
40434;DHT22;26146;51.114;5.654;2023-03-13T15:16:00;18.40;99.90
40434;DHT22;26146;51.114;5.654;2023-03-13T15:20:04;18.10;99.70
40434;DHT22;26146;51.114;5.654;2023-03-13T15:24:12;18.00;99.90
40434;DHT22;26146;51.114;5.654;2023-03-13T15:28:17;17.90;99.90
40434;DHT22;26146;51.114;5.654;2023-03-13T15:32:32;17.90;99.90
40434;DHT22;26146;51.114;5.654;2023-03-13T15:36:33;18.10;99.90
40434;DHT22;26146;51.114;5.654;2023-03-13T15:40:34;18.10;99.90
40434;DHT22;26146;51.114;5.654;2023-03-13T15:44:35;17.90;99.90
40434;DHT22;26146;51.114;5.654;2023-03-13T15:48:39;17.80;99.70
40434;DHT22;26146;51.114;5.654;2023-03-13T15:52:41;17.80;99.60
40434;DHT22;26146;51.114;5.654;2023-03-13T15:56:42;17.80;99.90
40434;DHT22;26146;51.114;5.654;2023-03-13T16:00:44;17.90;99.80
40434;DHT22;26146;51.114;5.654;2023-03-13T16:04:45;17.80;99.60
40434;DHT22;26146;51.114;5.654;2023-03-13T16:08:49;17.50;99.90
40434;DHT22;26146;51.114;5.654;2023-03-13T16:12:50;17.60;99.90
40434;DHT22;26146;51.114;5.654;2023-03-13T16:16:51;17.60;99.60
40434;DHT22;26146;51.114;5.654;2023-03-13T16:20:53;17.60;99.90
40434;DHT22;26146;51.114;5.654;2023-03-13T16:24:54;17.70;99.60
40434;DHT22;26146;51.114;5.654;2023-03-13T16:28:55;17.50;99.80
40434;DHT22;26146;51.114;5.654;2023-03-13T16:33:00;17.40;99.90
40434;DHT22;26146;51.114;5.654;2023-03-13T16:37:01;17.40;99.90
40434;DHT22;26146;51.114;5.654;2023-03-13T16:41:02;17.40;99.90
40434;DHT22;26146;51.114;5.654;2023-03-13T16:45:04;17.30;99.90
40434;DHT22;26146;51.114;5.654;2023-03-13T16:49:06;17.10;99.90
40434;DHT22;26146;51.114;5.654;2023-03-13T16:53:07;16.90;99.90
40434;DHT22;26146;51.114;5.654;2023-03-13T16:57:14;16.90;99.90
40434;DHT22;26146;51.114;5.654;2023-03-13T17:01:16;17.00;99.90
40434;DHT22;26146;51.114;5.654;2023-03-13T17:05:19;17.00;99.90
40434;DHT22;26146;51.114;5.654;2023-03-13T17:09:20;16.90;99.90
40434;DHT22;26146;51.114;5.654;2023-03-13T17:13:21;16.80;99.90
40434;DHT22;26146;51.114;5.654;2023-03-13T17:17:23;16.80;99.90
40434;DHT22;26146;51.114;5.654;2023-03-13T17:21:27;16.70;99.80
40434;DHT22;26146;51.114;5.654;2023-03-13T17:25:28;16.50;99.90
40434;DHT22;26146;51.114;5.654;2023-03-13T17:29:29;16.50;99.90
40434;DHT22;26146;51.114;5.654;2023-03-13T17:33:30;16.40;99.90
40434;DHT22;26146;51.114;5.654;2023-03-13T17:37:32;16.40;99.90
40434;DHT22;26146;51.114;5.654;2023-03-13T17:41:34;16.40;99.90
40434;DHT22;26146;51.114;5.654;2023-03-13T17:45:35;16.30;99.90
40434;DHT22;26146;51.114;5.654;2023-03-13T17:49:36;16.30;99.90
40434;DHT22;26146;51.114;5.654;2023-03-13T17:53:39;16.20;99.90
40434;DHT22;26146;51.114;5.654;2023-03-13T17:57:40;16.10;99.90
40434;DHT22;26146;51.114;5.654;2023-03-13T18:01:43;16.00;99.90
40434;DHT22;26146;51.114;5.654;2023-03-13T18:05:44;16.00;99.90
40434;DHT22;26146;51.114;5.654;2023-03-13T18:09:45;15.80;99.90
40434;DHT22;26146;51.114;5.654;2023-03-13T18:13:47;15.80;99.90
40434;DHT22;26146;51.114;5.654;2023-03-13T18:17:49;15.90;99.90
40434;DHT22;26146;51.114;5.654;2023-03-13T18:21:52;15.90;99.90
40434;DHT22;26146;51.114;5.654;2023-03-13T18:25:53;15.70;99.90
40434;DHT22;26146;51.114;5.654;2023-03-13T18:29:56;15.50;99.90
40434;DHT22;26146;51.114;5.654;2023-03-13T18:33:58;15.50;99.90
40434;DHT22;26146;51.114;5.654;2023-03-13T18:37:59;15.50;99.90
40434;DHT22;26146;51.114;5.654;2023-03-13T18:42:00;15.40;99.90
40434;DHT22;26146;51.114;5.654;2023-03-13T18:46:04;15.40;99.90
40434;DHT22;26146;51.114;5.654;2023-03-13T18:54:22;15.20;99.90
40434;DHT22;26146;51.114;5.654;2023-03-13T18:58:23;15.20;99.90
40434;DHT22;26146;51.114;5.654;2023-03-13T19:02:26;15.20;99.90
40434;DHT22;26146;51.114;5.654;2023-03-13T19:06:31;15.10;99.90
40434;DHT22;26146;51.114;5.654;2023-03-13T19:10:35;15.20;99.90
40434;DHT22;26146;51.114;5.654;2023-03-13T19:14:38;15.10;99.90
40434;DHT22;26146;51.114;5.654;2023-03-13T19:18:39;15.00;99.90
40434;DHT22;26146;51.114;5.654;2023-03-13T19:22:39;15.00;99.90
40434;DHT22;26146;51.114;5.654;2023-03-13T19:26:49;14.90;99.90
40434;DHT22;26146;51.114;5.654;2023-03-13T19:30:52;15.00;99.90
40434;DHT22;26146;51.114;5.654;2023-03-13T19:34:53;14.80;99.90
40434;DHT22;26146;51.114;5.654;2023-03-13T19:38:54;14.80;99.90
40434;DHT22;26146;51.114;5.654;2023-03-13T19:42:55;14.80;99.90
40434;DHT22;26146;51.114;5.654;2023-03-13T19:46:56;14.70;99.90
40434;DHT22;26146;51.114;5.654;2023-03-13T19:50:57;14.50;99.90
40434;DHT22;26146;51.114;5.654;2023-03-13T19:54:58;14.70;99.90
40434;DHT22;26146;51.114;5.654;2023-03-13T19:59:05;14.50;99.90
40434;DHT22;26146;51.114;5.654;2023-03-13T20:03:06;14.40;99.90
40434;DHT22;26146;51.114;5.654;2023-03-13T20:07:07;14.40;99.90
40434;DHT22;26146;51.114;5.654;2023-03-13T20:11:08;14.30;99.90
40434;DHT22;26146;51.114;5.654;2023-03-13T20:15:12;14.10;99.90
40434;DHT22;26146;51.114;5.654;2023-03-13T20:19:13;14.10;99.90
40434;DHT22;26146;51.114;5.654;2023-03-13T20:23:14;14.00;99.90
40434;DHT22;26146;51.114;5.654;2023-03-13T20:27:15;14.00;99.90
40434;DHT22;26146;51.114;5.654;2023-03-13T20:31:19;14.00;99.90
40434;DHT22;26146;51.114;5.654;2023-03-13T20:35:20;14.10;99.90
40434;DHT22;26146;51.114;5.654;2023-03-13T20:39:22;14.00;99.90
40434;DHT22;26146;51.114;5.654;2023-03-13T20:43:24;13.90;99.90
40434;DHT22;26146;51.114;5.654;2023-03-13T20:47:25;13.80;99.90
40434;DHT22;26146;51.114;5.654;2023-03-13T20:51:28;13.80;99.90
40434;DHT22;26146;51.114;5.654;2023-03-13T20:55:31;13.70;99.90
40434;DHT22;26146;51.114;5.654;2023-03-13T20:59:33;13.70;99.90
40434;DHT22;26146;51.114;5.654;2023-03-13T21:03:35;13.50;99.90
40434;DHT22;26146;51.114;5.654;2023-03-13T21:07:36;13.50;99.90
40434;DHT22;26146;51.114;5.654;2023-03-13T21:11:37;13.60;99.90
40434;DHT22;26146;51.114;5.654;2023-03-13T21:15:38;13.60;99.90
40434;DHT22;26146;51.114;5.654;2023-03-13T21:19:40;13.70;99.90
40434;DHT22;26146;51.114;5.654;2023-03-13T21:23:44;13.70;99.90
40434;DHT22;26146;51.114;5.654;2023-03-13T21:27:45;13.60;99.90
40434;DHT22;26146;51.114;5.654;2023-03-13T21:31:46;13.60;99.90
40434;DHT22;26146;51.114;5.654;2023-03-13T21:35:49;13.50;99.90
40434;DHT22;26146;51.114;5.654;2023-03-13T21:39:53;13.50;99.90
40434;DHT22;26146;51.114;5.654;2023-03-13T21:43:54;13.50;99.90
40434;DHT22;26146;51.114;5.654;2023-03-13T21:47:57;13.40;99.90
40434;DHT22;26146;51.114;5.654;2023-03-13T21:52:01;13.40;99.90
40434;DHT22;26146;51.114;5.654;2023-03-13T21:56:02;13.30;99.90
40434;DHT22;26146;51.114;5.654;2023-03-13T22:00:04;13.20;99.90
40434;DHT22;26146;51.114;5.654;2023-03-13T22:04:07;13.20;99.90
40434;DHT22;26146;51.114;5.654;2023-03-13T22:08:10;13.10;99.90
40434;DHT22;26146;51.114;5.654;2023-03-13T22:12:11;13.00;99.90
40434;DHT22;26146;51.114;5.654;2023-03-13T22:16:12;13.10;99.90
40434;DHT22;26146;51.114;5.654;2023-03-13T22:20:13;13.00;99.90
40434;DHT22;26146;51.114;5.654;2023-03-13T22:24:14;13.10;99.90
40434;DHT22;26146;51.114;5.654;2023-03-13T22:28:15;13.00;99.90
40434;DHT22;26146;51.114;5.654;2023-03-13T22:32:15;13.00;99.90
40434;DHT22;26146;51.114;5.654;2023-03-13T22:36:19;12.90;99.90
40434;DHT22;26146;51.114;5.654;2023-03-13T22:40:20;12.90;99.90
40434;DHT22;26146;51.114;5.654;2023-03-13T22:44:21;12.90;99.90
40434;DHT22;26146;51.114;5.654;2023-03-13T22:48:23;13.00;99.90
40434;DHT22;26146;51.114;5.654;2023-03-13T22:52:24;13.10;99.90
40434;DHT22;26146;51.114;5.654;2023-03-13T22:56:30;13.20;99.90
40434;DHT22;26146;51.114;5.654;2023-03-13T23:00:31;13.20;99.90
40434;DHT22;26146;51.114;5.654;2023-03-13T23:04:32;13.30;99.90
40434;DHT22;26146;51.114;5.654;2023-03-13T23:08:34;13.40;99.90
40434;DHT22;26146;51.114;5.654;2023-03-13T23:12:35;13.40;99.90
40434;DHT22;26146;51.114;5.654;2023-03-13T23:16:36;13.50;99.90
40434;DHT22;26146;51.114;5.654;2023-03-13T23:20:37;13.50;99.90
40434;DHT22;26146;51.114;5.654;2023-03-13T23:24:40;13.50;99.90
40434;DHT22;26146;51.114;5.654;2023-03-13T23:28:41;13.40;99.90
40434;DHT22;26146;51.114;5.654;2023-03-13T23:32:44;13.30;99.90
40434;DHT22;26146;51.114;5.654;2023-03-13T23:36:47;13.40;99.90
40434;DHT22;26146;51.114;5.654;2023-03-13T23:40:49;13.40;99.90
40434;DHT22;26146;51.114;5.654;2023-03-13T23:44:49;13.40;99.90
40434;DHT22;26146;51.114;5.654;2023-03-13T23:48:52;13.30;99.90
40434;DHT22;26146;51.114;5.654;2023-03-13T23:52:53;13.10;99.90
40434;DHT22;26146;51.114;5.654;2023-03-13T23:56:55;13.10;99.90
